sensor_id;sensor_type;location;lat;lon;timestamp;temperature;humidity
9209;DHT22;4639;48.862;9.188;2022-08-19T00:00:34;21.50;99.90
9209;DHT22;4639;48.862;9.188;2022-08-19T00:03:00;21.60;99.90
9209;DHT22;4639;48.862;9.188;2022-08-19T00:05:26;21.60;99.90
9209;DHT22;4639;48.862;9.188;2022-08-19T00:07:51;21.50;99.90
9209;DHT22;4639;48.862;9.188;2022-08-19T00:10:19;21.50;99.90
9209;DHT22;4639;48.862;9.188;2022-08-19T00:12:44;21.50;99.90
9209;DHT22;4639;48.862;9.188;2022-08-19T00:15:14;21.50;99.90
9209;DHT22;4639;48.862;9.188;2022-08-19T00:17:42;21.40;99.90
9209;DHT22;4639;48.862;9.188;2022-08-19T00:20:12;21.50;99.90
9209;DHT22;4639;48.862;9.188;2022-08-19T00:22:39;21.70;99.90
9209;DHT22;4639;48.862;9.188;2022-08-19T00:25:07;21.70;99.90
9209;DHT22;4639;48.862;9.188;2022-08-19T00:27:33;21.70;99.90
9209;DHT22;4639;48.862;9.188;2022-08-19T00:29:59;21.60;99.90
9209;DHT22;4639;48.862;9.188;2022-08-19T00:32:25;21.50;99.90
9209;DHT22;4639;48.862;9.188;2022-08-19T00:34:52;21.50;99.90
9209;DHT22;4639;48.862;9.188;2022-08-19T00:37:23;21.50;99.90
9209;DHT22;4639;48.862;9.188;2022-08-19T00:39:50;21.40;99.90
9209;DHT22;4639;48.862;9.188;2022-08-19T00:42:17;21.40;99.90
9209;DHT22;4639;48.862;9.188;2022-08-19T00:44:43;21.40;99.90
9209;DHT22;4639;48.862;9.188;2022-08-19T00:47:09;21.40;99.90
9209;DHT22;4639;48.862;9.188;2022-08-19T00:49:46;21.40;99.90
9209;DHT22;4639;48.862;9.188;2022-08-19T00:52:20;21.30;99.90
9209;DHT22;4639;48.862;9.188;2022-08-19T00:54:47;21.30;99.90
9209;DHT22;4639;48.862;9.188;2022-08-19T00:57:17;21.40;99.90
9209;DHT22;4639;48.862;9.188;2022-08-19T00:59:46;21.40;99.90
9209;DHT22;4639;48.862;9.188;2022-08-19T01:02:14;21.50;99.90
9209;DHT22;4639;48.862;9.188;2022-08-19T01:04:40;21.40;99.90
9209;DHT22;4639;48.862;9.188;2022-08-19T01:07:06;21.40;99.90
9209;DHT22;4639;48.862;9.188;2022-08-19T01:09:32;21.40;99.90
9209;DHT22;4639;48.862;9.188;2022-08-19T01:11:58;21.40;99.90
9209;DHT22;4639;48.862;9.188;2022-08-19T01:14:24;21.40;99.90
9209;DHT22;4639;48.862;9.188;2022-08-19T01:16:51;21.40;99.90
9209;DHT22;4639;48.862;9.188;2022-08-19T01:19:31;21.40;99.90
9209;DHT22;4639;48.862;9.188;2022-08-19T01:22:03;21.40;99.90
9209;DHT22;4639;48.862;9.188;2022-08-19T01:24:30;21.40;99.90
9209;DHT22;4639;48.862;9.188;2022-08-19T01:26:57;21.40;99.90
9209;DHT22;4639;48.862;9.188;2022-08-19T01:29:23;21.40;99.90
9209;DHT22;4639;48.862;9.188;2022-08-19T01:31:48;21.40;99.90
9209;DHT22;4639;48.862;9.188;2022-08-19T01:34:18;21.40;99.90
9209;DHT22;4639;48.862;9.188;2022-08-19T01:36:45;21.40;99.90
9209;DHT22;4639;48.862;9.188;2022-08-19T01:39:15;21.40;99.90
9209;DHT22;4639;48.862;9.188;2022-08-19T01:41:41;21.40;99.90
9209;DHT22;4639;48.862;9.188;2022-08-19T01:44:09;21.30;99.90
9209;DHT22;4639;48.862;9.188;2022-08-19T01:46:35;21.20;99.90
9209;DHT22;4639;48.862;9.188;2022-08-19T01:49:03;21.20;99.90
9209;DHT22;4639;48.862;9.188;2022-08-19T01:51:28;21.20;99.90
9209;DHT22;4639;48.862;9.188;2022-08-19T01:53:56;21.10;99.90
9209;DHT22;4639;48.862;9.188;2022-08-19T01:56:23;21.10;99.90
9209;DHT22;4639;48.862;9.188;2022-08-19T01:58:56;21.00;99.90
9209;DHT22;4639;48.862;9.188;2022-08-19T02:01:23;21.10;99.90
9209;DHT22;4639;48.862;9.188;2022-08-19T02:03:48;21.10;99.90
9209;DHT22;4639;48.862;9.188;2022-08-19T02:06:14;21.10;99.90
9209;DHT22;4639;48.862;9.188;2022-08-19T02:08:42;21.10;99.90
9209;DHT22;4639;48.862;9.188;2022-08-19T02:11:21;21.10;99.90
9209;DHT22;4639;48.862;9.188;2022-08-19T02:13:47;21.10;99.90
9209;DHT22;4639;48.862;9.188;2022-08-19T02:16:16;21.00;99.90
9209;DHT22;4639;48.862;9.188;2022-08-19T02:18:41;20.90;99.90
9209;DHT22;4639;48.862;9.188;2022-08-19T02:21:07;20.90;99.90
9209;DHT22;4639;48.862;9.188;2022-08-19T02:23:32;20.90;99.90
9209;DHT22;4639;48.862;9.188;2022-08-19T02:25:58;20.90;99.90
9209;DHT22;4639;48.862;9.188;2022-08-19T02:28:24;21.00;99.90
9209;DHT22;4639;48.862;9.188;2022-08-19T02:30:49;20.90;99.90
9209;DHT22;4639;48.862;9.188;2022-08-19T02:33:15;21.00;99.90
9209;DHT22;4639;48.862;9.188;2022-08-19T02:35:43;21.00;99.90
9209;DHT22;4639;48.862;9.188;2022-08-19T02:38:09;21.00;99.90
9209;DHT22;4639;48.862;9.188;2022-08-19T02:41:05;21.00;99.90
9209;DHT22;4639;48.862;9.188;2022-08-19T02:43:32;20.90;99.90
9209;DHT22;4639;48.862;9.188;2022-08-19T02:46:01;20.80;99.90
9209;DHT22;4639;48.862;9.188;2022-08-19T02:48:27;20.80;99.90
9209;DHT22;4639;48.862;9.188;2022-08-19T02:50:53;20.70;99.90
9209;DHT22;4639;48.862;9.188;2022-08-19T02:53:27;20.80;99.90
9209;DHT22;4639;48.862;9.188;2022-08-19T02:55:53;20.80;99.90
9209;DHT22;4639;48.862;9.188;2022-08-19T02:58:19;20.80;99.90
9209;DHT22;4639;48.862;9.188;2022-08-19T03:00:48;20.70;99.90
9209;DHT22;4639;48.862;9.188;2022-08-19T03:03:15;20.70;99.90
9209;DHT22;4639;48.862;9.188;2022-08-19T03:05:41;20.70;99.90
9209;DHT22;4639;48.862;9.188;2022-08-19T03:08:08;20.70;99.90
9209;DHT22;4639;48.862;9.188;2022-08-19T03:10:46;20.60;99.90
9209;DHT22;4639;48.862;9.188;2022-08-19T03:13:17;20.70;99.90
9209;DHT22;4639;48.862;9.188;2022-08-19T03:15:45;20.70;99.90
9209;DHT22;4639;48.862;9.188;2022-08-19T03:18:11;20.70;99.90
9209;DHT22;4639;48.862;9.188;2022-08-19T03:20:44;20.70;99.90
9209;DHT22;4639;48.862;9.188;2022-08-19T03:23:11;20.60;99.90
9209;DHT22;4639;48.862;9.188;2022-08-19T03:25:43;20.60;99.90
9209;DHT22;4639;48.862;9.188;2022-08-19T03:28:10;20.60;99.90
9209;DHT22;4639;48.862;9.188;2022-08-19T03:30:36;20.50;99.90
9209;DHT22;4639;48.862;9.188;2022-08-19T03:33:01;20.40;99.90
9209;DHT22;4639;48.862;9.188;2022-08-19T03:35:27;20.50;99.90
9209;DHT22;4639;48.862;9.188;2022-08-19T03:37:53;20.40;99.90
9209;DHT22;4639;48.862;9.188;2022-08-19T03:40:19;20.30;99.90
9209;DHT22;4639;48.862;9.188;2022-08-19T03:42:44;20.30;99.90
9209;DHT22;4639;48.862;9.188;2022-08-19T03:45:11;20.30;99.90
9209;DHT22;4639;48.862;9.188;2022-08-19T03:47:37;20.30;99.90
9209;DHT22;4639;48.862;9.188;2022-08-19T03:50:03;20.30;99.90
9209;DHT22;4639;48.862;9.188;2022-08-19T03:52:29;20.30;99.90
9209;DHT22;4639;48.862;9.188;2022-08-19T03:54:55;20.30;99.90
9209;DHT22;4639;48.862;9.188;2022-08-19T03:57:21;20.40;99.90
9209;DHT22;4639;48.862;9.188;2022-08-19T03:59:47;20.40;99.90
9209;DHT22;4639;48.862;9.188;2022-08-19T04:02:13;20.40;99.90
9209;DHT22;4639;48.862;9.188;2022-08-19T04:04:41;20.40;99.90
9209;DHT22;4639;48.862;9.188;2022-08-19T04:07:09;20.40;99.90
9209;DHT22;4639;48.862;9.188;2022-08-19T04:09:35;20.40;99.90
9209;DHT22;4639;48.862;9.188;2022-08-19T04:12:02;20.40;99.90
9209;DHT22;4639;48.862;9.188;2022-08-19T04:14:31;20.40;99.90
9209;DHT22;4639;48.862;9.188;2022-08-19T04:16:58;20.30;99.90
9209;DHT22;4639;48.862;9.188;2022-08-19T04:19:24;20.30;99.90
9209;DHT22;4639;48.862;9.188;2022-08-19T04:21:52;20.30;99.90
9209;DHT22;4639;48.862;9.188;2022-08-19T04:24:18;20.30;99.90
9209;DHT22;4639;48.862;9.188;2022-08-19T04:26:45;20.30;99.90
9209;DHT22;4639;48.862;9.188;2022-08-19T04:29:16;20.30;99.90
9209;DHT22;4639;48.862;9.188;2022-08-19T04:31:43;20.30;99.90
9209;DHT22;4639;48.862;9.188;2022-08-19T04:34:11;20.20;99.90
9209;DHT22;4639;48.862;9.188;2022-08-19T04:36:38;20.30;99.90
9209;DHT22;4639;48.862;9.188;2022-08-19T04:39:09;20.30;99.90
9209;DHT22;4639;48.862;9.188;2022-08-19T04:41:35;20.30;99.90
9209;DHT22;4639;48.862;9.188;2022-08-19T04:44:20;20.20;99.90
9209;DHT22;4639;48.862;9.188;2022-08-19T04:46:48;20.20;99.90
9209;DHT22;4639;48.862;9.188;2022-08-19T04:49:14;20.30;99.90
9209;DHT22;4639;48.862;9.188;2022-08-19T04:51:42;20.20;99.90
9209;DHT22;4639;48.862;9.188;2022-08-19T04:54:08;20.30;99.90
9209;DHT22;4639;48.862;9.188;2022-08-19T04:56:34;20.30;99.90
9209;DHT22;4639;48.862;9.188;2022-08-19T04:59:00;20.30;99.90
9209;DHT22;4639;48.862;9.188;2022-08-19T05:01:30;20.30;99.90
9209;DHT22;4639;48.862;9.188;2022-08-19T05:03:59;20.20;99.90
9209;DHT22;4639;48.862;9.188;2022-08-19T05:06:26;20.20;99.90
9209;DHT22;4639;48.862;9.188;2022-08-19T05:08:52;20.20;99.90
9209;DHT22;4639;48.862;9.188;2022-08-19T05:11:24;20.10;99.90
9209;DHT22;4639;48.862;9.188;2022-08-19T05:13:51;20.10;99.90
9209;DHT22;4639;48.862;9.188;2022-08-19T05:16:19;20.10;99.90
9209;DHT22;4639;48.862;9.188;2022-08-19T05:18:45;20.20;99.90
9209;DHT22;4639;48.862;9.188;2022-08-19T05:21:30;20.20;99.90
9209;DHT22;4639;48.862;9.188;2022-08-19T05:24:15;20.20;99.90
9209;DHT22;4639;48.862;9.188;2022-08-19T05:26:43;20.20;99.90
9209;DHT22;4639;48.862;9.188;2022-08-19T05:29:12;20.20;99.90
9209;DHT22;4639;48.862;9.188;2022-08-19T05:31:38;20.10;99.90
9209;DHT22;4639;48.862;9.188;2022-08-19T05:34:04;20.10;99.90
9209;DHT22;4639;48.862;9.188;2022-08-19T05:36:35;20.10;99.90
9209;DHT22;4639;48.862;9.188;2022-08-19T05:39:03;20.00;99.90
9209;DHT22;4639;48.862;9.188;2022-08-19T05:41:29;20.10;99.90
9209;DHT22;4639;48.862;9.188;2022-08-19T05:44:02;20.10;99.90
9209;DHT22;4639;48.862;9.188;2022-08-19T05:46:28;20.10;99.90
9209;DHT22;4639;48.862;9.188;2022-08-19T05:48:55;20.20;99.90
9209;DHT22;4639;48.862;9.188;2022-08-19T05:51:22;20.30;99.90
9209;DHT22;4639;48.862;9.188;2022-08-19T05:53:48;20.50;99.90
9209;DHT22;4639;48.862;9.188;2022-08-19T05:56:15;20.20;99.90
9209;DHT22;4639;48.862;9.188;2022-08-19T05:58:42;20.20;99.90
9209;DHT22;4639;48.862;9.188;2022-08-19T06:01:12;20.30;99.90
9209;DHT22;4639;48.862;9.188;2022-08-19T06:03:38;20.30;99.90
9209;DHT22;4639;48.862;9.188;2022-08-19T06:06:06;20.30;99.90
9209;DHT22;4639;48.862;9.188;2022-08-19T06:08:31;20.30;99.90
9209;DHT22;4639;48.862;9.188;2022-08-19T06:10:58;20.30;99.90
9209;DHT22;4639;48.862;9.188;2022-08-19T06:13:36;20.30;99.90
9209;DHT22;4639;48.862;9.188;2022-08-19T06:16:02;20.30;99.90
9209;DHT22;4639;48.862;9.188;2022-08-19T06:18:27;20.20;99.90
9209;DHT22;4639;48.862;9.188;2022-08-19T06:20:53;20.30;99.90
9209;DHT22;4639;48.862;9.188;2022-08-19T06:23:18;20.20;99.90
9209;DHT22;4639;48.862;9.188;2022-08-19T06:25:45;20.30;99.90
9209;DHT22;4639;48.862;9.188;2022-08-19T06:28:11;20.30;99.90
9209;DHT22;4639;48.862;9.188;2022-08-19T06:30:37;20.40;99.90
9209;DHT22;4639;48.862;9.188;2022-08-19T06:33:02;20.40;99.90
9209;DHT22;4639;48.862;9.188;2022-08-19T06:35:28;20.40;99.90
9209;DHT22;4639;48.862;9.188;2022-08-19T06:37:55;20.40;99.90
9209;DHT22;4639;48.862;9.188;2022-08-19T06:40:20;20.40;99.90
9209;DHT22;4639;48.862;9.188;2022-08-19T06:42:46;20.50;99.90
9209;DHT22;4639;48.862;9.188;2022-08-19T06:45:11;20.50;99.90
9209;DHT22;4639;48.862;9.188;2022-08-19T06:47:37;20.50;99.90
9209;DHT22;4639;48.862;9.188;2022-08-19T06:50:03;20.50;99.90
9209;DHT22;4639;48.862;9.188;2022-08-19T06:52:34;20.40;99.90
9209;DHT22;4639;48.862;9.188;2022-08-19T06:55:01;20.40;99.90
9209;DHT22;4639;48.862;9.188;2022-08-19T06:57:27;20.50;99.90
9209;DHT22;4639;48.862;9.188;2022-08-19T06:59:53;20.50;99.90
9209;DHT22;4639;48.862;9.188;2022-08-19T07:02:21;20.50;99.90
9209;DHT22;4639;48.862;9.188;2022-08-19T07:04:51;20.50;99.90
9209;DHT22;4639;48.862;9.188;2022-08-19T07:07:17;20.40;99.90
9209;DHT22;4639;48.862;9.188;2022-08-19T07:09:44;20.40;99.90
9209;DHT22;4639;48.862;9.188;2022-08-19T07:12:12;20.30;99.90
9209;DHT22;4639;48.862;9.188;2022-08-19T07:14:40;20.30;99.90
9209;DHT22;4639;48.862;9.188;2022-08-19T07:17:08;20.40;99.90
9209;DHT22;4639;48.862;9.188;2022-08-19T07:19:36;20.40;99.90
9209;DHT22;4639;48.862;9.188;2022-08-19T07:22:04;20.40;99.90
9209;DHT22;4639;48.862;9.188;2022-08-19T07:24:30;20.50;99.90
9209;DHT22;4639;48.862;9.188;2022-08-19T07:26:57;20.60;99.90
9209;DHT22;4639;48.862;9.188;2022-08-19T07:29:26;20.60;99.90
9209;DHT22;4639;48.862;9.188;2022-08-19T07:31:53;20.60;99.90
9209;DHT22;4639;48.862;9.188;2022-08-19T07:34:22;20.60;99.90
9209;DHT22;4639;48.862;9.188;2022-08-19T07:36:47;20.60;99.90
9209;DHT22;4639;48.862;9.188;2022-08-19T07:39:18;20.60;99.90
9209;DHT22;4639;48.862;9.188;2022-08-19T07:41:46;20.50;99.90
9209;DHT22;4639;48.862;9.188;2022-08-19T07:44:12;20.60;99.90
9209;DHT22;4639;48.862;9.188;2022-08-19T07:46:40;20.50;99.90
9209;DHT22;4639;48.862;9.188;2022-08-19T07:49:07;20.50;99.90
9209;DHT22;4639;48.862;9.188;2022-08-19T07:51:34;20.60;99.90
9209;DHT22;4639;48.862;9.188;2022-08-19T07:54:00;20.70;99.90
9209;DHT22;4639;48.862;9.188;2022-08-19T07:56:26;20.70;99.90
9209;DHT22;4639;48.862;9.188;2022-08-19T07:58:52;20.80;99.90
9209;DHT22;4639;48.862;9.188;2022-08-19T08:01:21;20.80;99.90
9209;DHT22;4639;48.862;9.188;2022-08-19T08:03:49;20.90;99.90
9209;DHT22;4639;48.862;9.188;2022-08-19T08:06:33;20.90;99.90
9209;DHT22;4639;48.862;9.188;2022-08-19T08:09:27;20.90;99.90
9209;DHT22;4639;48.862;9.188;2022-08-19T08:11:54;20.90;99.90
9209;DHT22;4639;48.862;9.188;2022-08-19T08:14:28;20.80;99.90
9209;DHT22;4639;48.862;9.188;2022-08-19T08:16:54;20.80;99.90
9209;DHT22;4639;48.862;9.188;2022-08-19T08:19:22;20.80;99.90
9209;DHT22;4639;48.862;9.188;2022-08-19T08:21:50;20.80;99.90
9209;DHT22;4639;48.862;9.188;2022-08-19T08:24:16;20.90;99.90
9209;DHT22;4639;48.862;9.188;2022-08-19T08:26:42;20.90;99.90
9209;DHT22;4639;48.862;9.188;2022-08-19T08:29:12;20.90;99.90
9209;DHT22;4639;48.862;9.188;2022-08-19T08:31:41;21.00;99.90
9209;DHT22;4639;48.862;9.188;2022-08-19T08:34:07;21.00;99.90
9209;DHT22;4639;48.862;9.188;2022-08-19T08:36:37;20.90;99.90
9209;DHT22;4639;48.862;9.188;2022-08-19T08:39:08;20.90;99.90
9209;DHT22;4639;48.862;9.188;2022-08-19T08:41:46;20.80;99.90
9209;DHT22;4639;48.862;9.188;2022-08-19T08:44:28;20.90;99.90
9209;DHT22;4639;48.862;9.188;2022-08-19T08:47:01;20.90;99.90
9209;DHT22;4639;48.862;9.188;2022-08-19T08:49:35;21.00;99.90
9209;DHT22;4639;48.862;9.188;2022-08-19T08:52:26;21.00;99.90
9209;DHT22;4639;48.862;9.188;2022-08-19T08:54:57;21.00;99.90
9209;DHT22;4639;48.862;9.188;2022-08-19T08:59:57;21.10;99.90
9209;DHT22;4639;48.862;9.188;2022-08-19T09:02:24;21.00;99.90
9209;DHT22;4639;48.862;9.188;2022-08-19T09:04:50;21.00;99.90
9209;DHT22;4639;48.862;9.188;2022-08-19T09:07:57;21.10;99.90
9209;DHT22;4639;48.862;9.188;2022-08-19T09:10:36;21.10;99.90
9209;DHT22;4639;48.862;9.188;2022-08-19T09:15:52;21.20;99.90
9209;DHT22;4639;48.862;9.188;2022-08-19T09:18:19;21.30;99.90
9209;DHT22;4639;48.862;9.188;2022-08-19T09:20:45;21.30;99.90
9209;DHT22;4639;48.862;9.188;2022-08-19T09:23:13;21.30;99.90
9209;DHT22;4639;48.862;9.188;2022-08-19T09:25:38;21.40;99.90
9209;DHT22;4639;48.862;9.188;2022-08-19T09:28:06;21.50;99.90
9209;DHT22;4639;48.862;9.188;2022-08-19T09:30:36;21.50;99.90
9209;DHT22;4639;48.862;9.188;2022-08-19T09:33:04;21.60;99.90
9209;DHT22;4639;48.862;9.188;2022-08-19T09:35:30;21.60;99.90
9209;DHT22;4639;48.862;9.188;2022-08-19T09:37:56;21.70;99.90
9209;DHT22;4639;48.862;9.188;2022-08-19T09:40:23;21.80;99.90
9209;DHT22;4639;48.862;9.188;2022-08-19T09:42:49;22.10;99.90
9209;DHT22;4639;48.862;9.188;2022-08-19T09:45:16;21.90;99.90
9209;DHT22;4639;48.862;9.188;2022-08-19T09:47:42;21.90;99.90
9209;DHT22;4639;48.862;9.188;2022-08-19T09:50:10;22.00;99.90
9209;DHT22;4639;48.862;9.188;2022-08-19T09:52:37;22.00;99.90
9209;DHT22;4639;48.862;9.188;2022-08-19T09:55:08;22.10;99.90
9209;DHT22;4639;48.862;9.188;2022-08-19T09:57:34;22.20;99.90
9209;DHT22;4639;48.862;9.188;2022-08-19T10:00:01;22.20;99.90
9209;DHT22;4639;48.862;9.188;2022-08-19T10:02:27;22.10;99.90
9209;DHT22;4639;48.862;9.188;2022-08-19T10:04:52;22.20;99.90
9209;DHT22;4639;48.862;9.188;2022-08-19T10:07:38;22.10;99.90
9209;DHT22;4639;48.862;9.188;2022-08-19T10:10:05;22.10;99.90
9209;DHT22;4639;48.862;9.188;2022-08-19T10:12:32;22.10;99.90
9209;DHT22;4639;48.862;9.188;2022-08-19T10:14:59;22.10;99.90
9209;DHT22;4639;48.862;9.188;2022-08-19T10:17:25;22.10;99.90
9209;DHT22;4639;48.862;9.188;2022-08-19T10:19:51;22.00;99.90
9209;DHT22;4639;48.862;9.188;2022-08-19T10:22:18;22.00;99.90
9209;DHT22;4639;48.862;9.188;2022-08-19T10:24:45;22.10;99.90
9209;DHT22;4639;48.862;9.188;2022-08-19T10:27:11;22.20;99.90
9209;DHT22;4639;48.862;9.188;2022-08-19T10:29:38;22.20;99.90
9209;DHT22;4639;48.862;9.188;2022-08-19T10:32:06;22.30;99.90
9209;DHT22;4639;48.862;9.188;2022-08-19T10:34:32;22.30;99.90
9209;DHT22;4639;48.862;9.188;2022-08-19T10:36:59;22.40;99.90
9209;DHT22;4639;48.862;9.188;2022-08-19T10:39:29;22.50;99.90
9209;DHT22;4639;48.862;9.188;2022-08-19T10:41:56;22.60;99.90
9209;DHT22;4639;48.862;9.188;2022-08-19T10:44:22;22.60;99.90
9209;DHT22;4639;48.862;9.188;2022-08-19T10:46:49;22.60;99.90
9209;DHT22;4639;48.862;9.188;2022-08-19T10:49:15;22.60;99.90
9209;DHT22;4639;48.862;9.188;2022-08-19T10:51:42;22.60;99.90
9209;DHT22;4639;48.862;9.188;2022-08-19T10:54:27;22.60;99.90
9209;DHT22;4639;48.862;9.188;2022-08-19T10:57:13;22.60;99.90
9209;DHT22;4639;48.862;9.188;2022-08-19T10:59:39;22.60;99.90
9209;DHT22;4639;48.862;9.188;2022-08-19T11:02:08;22.60;99.90
9209;DHT22;4639;48.862;9.188;2022-08-19T11:04:36;22.70;99.90
9209;DHT22;4639;48.862;9.188;2022-08-19T11:07:03;22.80;99.90
9209;DHT22;4639;48.862;9.188;2022-08-19T11:09:29;22.90;99.90
9209;DHT22;4639;48.862;9.188;2022-08-19T11:11:55;23.10;99.90
9209;DHT22;4639;48.862;9.188;2022-08-19T11:14:22;23.20;99.90
9209;DHT22;4639;48.862;9.188;2022-08-19T11:16:49;23.30;99.90
9209;DHT22;4639;48.862;9.188;2022-08-19T11:19:16;23.40;99.90
9209;DHT22;4639;48.862;9.188;2022-08-19T11:21:46;23.50;99.90
9209;DHT22;4639;48.862;9.188;2022-08-19T11:24:16;23.50;99.90
9209;DHT22;4639;48.862;9.188;2022-08-19T11:26:43;23.80;99.90
9209;DHT22;4639;48.862;9.188;2022-08-19T11:29:10;23.70;99.90
9209;DHT22;4639;48.862;9.188;2022-08-19T11:31:37;23.70;99.90
9209;DHT22;4639;48.862;9.188;2022-08-19T11:34:07;23.70;99.90
9209;DHT22;4639;48.862;9.188;2022-08-19T11:36:34;23.80;99.90
9209;DHT22;4639;48.862;9.188;2022-08-19T11:39:04;23.90;99.90
9209;DHT22;4639;48.862;9.188;2022-08-19T11:41:29;23.90;99.90
9209;DHT22;4639;48.862;9.188;2022-08-19T11:43:55;23.90;99.90
9209;DHT22;4639;48.862;9.188;2022-08-19T11:46:23;23.90;99.90
9209;DHT22;4639;48.862;9.188;2022-08-19T11:48:49;23.80;99.90
9209;DHT22;4639;48.862;9.188;2022-08-19T11:51:18;23.80;99.90
9209;DHT22;4639;48.862;9.188;2022-08-19T11:53:44;23.80;99.90
9209;DHT22;4639;48.862;9.188;2022-08-19T11:56:11;23.90;99.90
9209;DHT22;4639;48.862;9.188;2022-08-19T11:58:39;23.90;99.90
9209;DHT22;4639;48.862;9.188;2022-08-19T12:01:11;23.90;99.90
9209;DHT22;4639;48.862;9.188;2022-08-19T12:03:38;23.80;99.90
9209;DHT22;4639;48.862;9.188;2022-08-19T12:06:08;23.80;99.90
9209;DHT22;4639;48.862;9.188;2022-08-19T12:08:35;23.80;99.90
9209;DHT22;4639;48.862;9.188;2022-08-19T12:11:00;23.80;99.90
9209;DHT22;4639;48.862;9.188;2022-08-19T12:13:28;23.90;99.90
9209;DHT22;4639;48.862;9.188;2022-08-19T12:15:54;23.90;99.90
9209;DHT22;4639;48.862;9.188;2022-08-19T12:18:19;24.00;99.90
9209;DHT22;4639;48.862;9.188;2022-08-19T12:20:45;24.00;99.90
9209;DHT22;4639;48.862;9.188;2022-08-19T12:23:12;24.00;99.90
9209;DHT22;4639;48.862;9.188;2022-08-19T12:25:45;24.00;99.90
9209;DHT22;4639;48.862;9.188;2022-08-19T12:28:21;24.00;99.90
9209;DHT22;4639;48.862;9.188;2022-08-19T12:30:48;24.10;99.90
9209;DHT22;4639;48.862;9.188;2022-08-19T12:33:17;24.00;99.90
9209;DHT22;4639;48.862;9.188;2022-08-19T12:35:44;24.00;99.90
9209;DHT22;4639;48.862;9.188;2022-08-19T12:38:10;24.10;99.90
9209;DHT22;4639;48.862;9.188;2022-08-19T12:40:36;24.20;99.90
9209;DHT22;4639;48.862;9.188;2022-08-19T12:43:02;24.30;99.90
9209;DHT22;4639;48.862;9.188;2022-08-19T12:45:28;24.30;99.90
9209;DHT22;4639;48.862;9.188;2022-08-19T12:47:54;24.50;99.90
9209;DHT22;4639;48.862;9.188;2022-08-19T12:50:19;24.50;99.90
9209;DHT22;4639;48.862;9.188;2022-08-19T12:52:47;24.50;99.90
9209;DHT22;4639;48.862;9.188;2022-08-19T12:55:13;24.60;99.90
9209;DHT22;4639;48.862;9.188;2022-08-19T12:57:39;24.60;99.90
9209;DHT22;4639;48.862;9.188;2022-08-19T13:00:25;24.60;99.90
9209;DHT22;4639;48.862;9.188;2022-08-19T13:02:52;24.60;99.90
9209;DHT22;4639;48.862;9.188;2022-08-19T13:05:20;24.60;99.90
9209;DHT22;4639;48.862;9.188;2022-08-19T13:07:47;24.50;99.90
9209;DHT22;4639;48.862;9.188;2022-08-19T13:10:15;24.40;99.90
9209;DHT22;4639;48.862;9.188;2022-08-19T13:12:43;24.40;99.90
9209;DHT22;4639;48.862;9.188;2022-08-19T13:15:09;24.30;99.90
9209;DHT22;4639;48.862;9.188;2022-08-19T13:17:35;24.30;99.90
9209;DHT22;4639;48.862;9.188;2022-08-19T13:20:02;24.40;99.90
9209;DHT22;4639;48.862;9.188;2022-08-19T13:22:27;24.40;99.90
9209;DHT22;4639;48.862;9.188;2022-08-19T13:24:53;24.30;99.90
9209;DHT22;4639;48.862;9.188;2022-08-19T13:27:19;24.50;99.90
9209;DHT22;4639;48.862;9.188;2022-08-19T13:29:44;24.10;99.90
9209;DHT22;4639;48.862;9.188;2022-08-19T13:32:29;23.90;99.90
9209;DHT22;4639;48.862;9.188;2022-08-19T13:35:14;23.70;99.90
9209;DHT22;4639;48.862;9.188;2022-08-19T13:37:40;23.60;99.90
9209;DHT22;4639;48.862;9.188;2022-08-19T13:42:38;23.00;99.90
9209;DHT22;4639;48.862;9.188;2022-08-19T13:45:05;22.90;99.90
9209;DHT22;4639;48.862;9.188;2022-08-19T13:47:32;22.80;99.90
9209;DHT22;4639;48.862;9.188;2022-08-19T13:50:00;22.80;99.90
9209;DHT22;4639;48.862;9.188;2022-08-19T13:52:25;22.70;99.90
9209;DHT22;4639;48.862;9.188;2022-08-19T13:54:51;22.50;99.90
9209;DHT22;4639;48.862;9.188;2022-08-19T13:57:17;22.10;99.90
9209;DHT22;4639;48.862;9.188;2022-08-19T13:59:42;21.90;99.90
9209;DHT22;4639;48.862;9.188;2022-08-19T14:02:08;21.60;99.90
9209;DHT22;4639;48.862;9.188;2022-08-19T14:04:34;21.50;99.90
9209;DHT22;4639;48.862;9.188;2022-08-19T14:06:59;21.40;99.90
9209;DHT22;4639;48.862;9.188;2022-08-19T14:09:25;21.50;99.90
9209;DHT22;4639;48.862;9.188;2022-08-19T14:11:50;21.20;99.90
9209;DHT22;4639;48.862;9.188;2022-08-19T14:14:16;21.20;99.90
9209;DHT22;4639;48.862;9.188;2022-08-19T14:16:42;21.20;99.90
9209;DHT22;4639;48.862;9.188;2022-08-19T14:19:08;21.20;99.90
9209;DHT22;4639;48.862;9.188;2022-08-19T14:21:33;21.20;99.90
9209;DHT22;4639;48.862;9.188;2022-08-19T14:23:59;21.20;99.90
9209;DHT22;4639;48.862;9.188;2022-08-19T14:26:26;21.20;99.90
9209;DHT22;4639;48.862;9.188;2022-08-19T14:28:52;21.30;99.90
9209;DHT22;4639;48.862;9.188;2022-08-19T14:31:19;21.40;99.90
9209;DHT22;4639;48.862;9.188;2022-08-19T14:33:48;21.40;99.90
9209;DHT22;4639;48.862;9.188;2022-08-19T14:36:14;21.40;99.90
9209;DHT22;4639;48.862;9.188;2022-08-19T14:38:40;21.40;99.90
9209;DHT22;4639;48.862;9.188;2022-08-19T14:41:15;21.50;99.90
9209;DHT22;4639;48.862;9.188;2022-08-19T14:43:43;21.50;99.90
9209;DHT22;4639;48.862;9.188;2022-08-19T14:46:13;21.60;99.90
9209;DHT22;4639;48.862;9.188;2022-08-19T14:48:39;21.60;99.90
9209;DHT22;4639;48.862;9.188;2022-08-19T14:51:05;21.60;99.90
9209;DHT22;4639;48.862;9.188;2022-08-19T14:53:32;21.70;99.90
9209;DHT22;4639;48.862;9.188;2022-08-19T14:55:59;21.70;99.90
9209;DHT22;4639;48.862;9.188;2022-08-19T14:58:26;21.80;99.90
9209;DHT22;4639;48.862;9.188;2022-08-19T15:00:52;21.80;99.90
9209;DHT22;4639;48.862;9.188;2022-08-19T15:03:17;21.80;99.90
9209;DHT22;4639;48.862;9.188;2022-08-19T15:05:43;22.10;99.90
9209;DHT22;4639;48.862;9.188;2022-08-19T15:08:09;21.90;99.90
9209;DHT22;4639;48.862;9.188;2022-08-19T15:10:35;21.90;99.90
9209;DHT22;4639;48.862;9.188;2022-08-19T15:13:01;22.10;99.90
9209;DHT22;4639;48.862;9.188;2022-08-19T15:15:27;22.00;99.90
9209;DHT22;4639;48.862;9.188;2022-08-19T15:17:53;22.00;99.90
9209;DHT22;4639;48.862;9.188;2022-08-19T15:20:19;21.90;99.90
9209;DHT22;4639;48.862;9.188;2022-08-19T15:22:46;22.00;99.90
9209;DHT22;4639;48.862;9.188;2022-08-19T15:25:15;21.90;99.90
9209;DHT22;4639;48.862;9.188;2022-08-19T15:27:41;21.90;99.90
9209;DHT22;4639;48.862;9.188;2022-08-19T15:30:08;22.10;99.90
9209;DHT22;4639;48.862;9.188;2022-08-19T15:32:34;22.00;99.90
9209;DHT22;4639;48.862;9.188;2022-08-19T15:35:00;22.00;99.90
9209;DHT22;4639;48.862;9.188;2022-08-19T15:37:28;22.00;99.90
9209;DHT22;4639;48.862;9.188;2022-08-19T15:39:53;22.00;99.90
9209;DHT22;4639;48.862;9.188;2022-08-19T15:42:19;22.10;99.90
9209;DHT22;4639;48.862;9.188;2022-08-19T15:44:46;22.10;99.90
9209;DHT22;4639;48.862;9.188;2022-08-19T15:47:12;22.30;99.90
9209;DHT22;4639;48.862;9.188;2022-08-19T15:49:38;22.30;99.90
9209;DHT22;4639;48.862;9.188;2022-08-19T15:52:04;22.40;99.90
9209;DHT22;4639;48.862;9.188;2022-08-19T15:54:32;22.50;99.90
9209;DHT22;4639;48.862;9.188;2022-08-19T15:56:58;22.60;99.90
9209;DHT22;4639;48.862;9.188;2022-08-19T15:59:42;22.80;99.90
9209;DHT22;4639;48.862;9.188;2022-08-19T16:02:27;22.90;99.90
9209;DHT22;4639;48.862;9.188;2022-08-19T16:05:15;22.90;99.90
9209;DHT22;4639;48.862;9.188;2022-08-19T16:08:13;23.10;99.90
9209;DHT22;4639;48.862;9.188;2022-08-19T16:10:39;23.10;99.90
9209;DHT22;4639;48.862;9.188;2022-08-19T16:13:05;23.10;99.90
9209;DHT22;4639;48.862;9.188;2022-08-19T16:15:31;23.20;99.90